Sacramento, California
Current Conditions -  °F | °C
As of 6:53 PM on Monday 20 Oct 2014 (Local Time) from KSAC Reporting Station
Clear Clear  
Wind Chill: 66°   Ceiling: Unl
Heat Index: 66°   Visibility: 10mi
Dew Point: 49°   Wind: 9mph
Humidity: 54%   Direction: 230°SW
Pressure: 29.94"   Gusts: NA
Location:  38.58°N, 121.49°W
Report Text: KSAC 210153Z AUTO 23008KT 10SM CLR 19/09 A2994 RMK AO2 SLP140 T01890094 TSNO
Loading
Personal Weather Stations






























Interactive Weather Map
Tropical Storm Tracking
New forecast layout! Learn more

10-Day Weather Forecast

Advertisements
Track Severe Weather on mobile